Bessemer, AL (35020)

12:42 AM CDT on April 23, 2018 (GMT -0500)
alabama | | Change Station
Active Advisory: Wind Advisory Active Notice: Public Information Statement

Elev 525 ft 33.35 °N, 86.93 °W | Updated 3 seconds ago

Overcast
Overcast
60.0 °F
Feels Like 60.0 °F
N
0.0
Wind Variable Wind from South
Gusts 1.0 mph

Today
High -- | Low -- °F
--% Chance of Precip.
Yesterday
High -- | Low -- °F
Precip. -- in
Pressure 29.91 in
Visibility 10.0 miles
Clouds Scattered Clouds 900 ft
Overcast 1800 ft
Dew Point 59 °F
Humidity 97%
Rainfall 0.00 in
Snow Depth Not available.
6:08 AM 7:24 PM
First Quarter, 54% visible
SPECI KBHM 230510Z 20008KT 10SM SCT009 OVC018 16/16 A2991 RMK AO2 T01610156
Pressure 29.91 in
Visibility 10.0 miles
Clouds Scattered Clouds 900 ft
Overcast 1800 ft
Dew Point 59 °F
Humidity 97%
Rainfall 0.00 in
Snow Depth Not available.
6:08 AM 7:24 PM
First Quarter, 54% visible
SPECI KBHM 230510Z 20008KT 10SM SCT009 OVC018 16/16 A2991 RMK AO2 T01610156

Get Your Daily Forecast Email!

Thanks for signing up!

Be on the lookout for a verification email in your inbox.

You'll start receiving severe weather alerts in your inbox..

×

10-Day Weather Forecast

Almanac

Astronomy

Apr. 23, 2018 Rise Set
Actual Time
Civil Twilight
Nautical Twilight
Astronomical Twilight
Moon
Length of Visible Light
Length of Day
Tomorrow will be .
, % of the Moon is Illuminated

Today's Extremes

State Highs State Lows

Community

WunderPhotos

Category 6

Welcome to Category 6. This is the collective home for Weather Underground's featured writeups by Dr. Jeff Masters (right), Bob Henson (left), Chris Burt, and other regular contributors.

Nearby

Air Quality

  Air Quality AQ Index Pollutant
Not available.

Snow Depth

Station Depth Elevation

Earthquake Activity

City Distance Mag. Time & Date
Minimum magnitude displayed is 2.5.

Coastal Water Temperatures

Place Temperature

Stations

Nearby Weather Stations

Station Location Temp. Windchill Dew Point Humidity Wind Precip. Elev Updated Type
                   

Watches & Warnings

Wind Advisory
Issued: 7:15 PM CDT Apr. 22, 2018 – National Weather Service

... Wind Advisory remains in effect until 4 am CDT Monday...

* timing... the strongest winds will be possible through 4 am
Monday morning.

* Winds... will be 15 to 25 mph with gusts of 35 mph. Wind gusts
above 40 mph will be possible at higher elevations.

* Impacts... strong winds could cause large limbs and smaller
trees to fall.

Precautionary/preparedness actions...

A Wind Advisory means that wind gusts of 35 mph are expected.
Winds this strong can make driving difficult... especially for
high profile vehicles. Use extra caution.